Becancour, Canada
Current Conditions -  °F | °C
As of 7:00 AM on Sunday 23 Nov 2014 (Local Time) from CYRQ Reporting Station
Haze Haze  
Wind Chill: 36°   Ceiling: 400
Heat Index: 36°   Visibility: 1.5mi
Dew Point: 34°   Wind: 3mph
Humidity: 93%   Direction: 230°SW
Pressure: 29.97"   Gusts: NA
Location:  46.36°N, 72.44°W
Report Text: CYRQ 231200Z AUTO 23003KT 1 1/2SM BR OVC004 02/01 A2997 RMK SLP153
Loading
Personal Weather Stations






























Interactive Weather Map New forecast layout! Learn more

10-Day Weather Forecast

Advertisements
Track Severe Weather on mobile